sensor_id;sensor_type;location;lat;lon;timestamp;P1;durP1;ratioP1;P2;durP2;ratioP2
83326;SDS011;73250;55.594;13.020;2023-12-20T00:01:22;30.02;;;22.38;;
83326;SDS011;73250;55.594;13.020;2023-12-20T00:03:49;29.17;;;21.52;;
83326;SDS011;73250;55.594;13.020;2023-12-20T00:06:15;24.92;;;19.98;;
83326;SDS011;73250;55.594;13.020;2023-12-20T00:08:42;29.52;;;22.55;;
83326;SDS011;73250;55.594;13.020;2023-12-20T00:11:09;28.20;;;20.92;;
83326;SDS011;73250;55.594;13.020;2023-12-20T00:13:36;27.85;;;21.20;;
83326;SDS011;73250;55.594;13.020;2023-12-20T00:16:04;27.35;;;20.83;;
83326;SDS011;73250;55.594;13.020;2023-12-20T00:18:31;27.33;;;21.20;;
83326;SDS011;73250;55.594;13.020;2023-12-20T00:20:58;26.38;;;21.42;;
83326;SDS011;73250;55.594;13.020;2023-12-20T00:23:24;26.92;;;20.08;;
83326;SDS011;73250;55.594;13.020;2023-12-20T00:25:51;26.80;;;20.48;;
83326;SDS011;73250;55.594;13.020;2023-12-20T00:28:17;25.95;;;19.95;;
83326;SDS011;73250;55.594;13.020;2023-12-20T00:30:44;27.27;;;19.95;;
83326;SDS011;73250;55.594;13.020;2023-12-20T00:33:12;26.17;;;21.15;;
83326;SDS011;73250;55.594;13.020;2023-12-20T00:35:39;25.92;;;19.85;;
83326;SDS011;73250;55.594;13.020;2023-12-20T00:38:06;30.83;;;20.55;;
83326;SDS011;73250;55.594;13.020;2023-12-20T00:40:33;25.25;;;20.30;;
83326;SDS011;73250;55.594;13.020;2023-12-20T00:43:00;27.95;;;20.90;;
83326;SDS011;73250;55.594;13.020;2023-12-20T00:45:27;24.58;;;19.58;;
83326;SDS011;73250;55.594;13.020;2023-12-20T00:47:54;26.38;;;19.83;;
83326;SDS011;73250;55.594;13.020;2023-12-20T00:50:21;26.83;;;20.83;;
83326;SDS011;73250;55.594;13.020;2023-12-20T00:52:48;30.30;;;20.33;;
83326;SDS011;73250;55.594;13.020;2023-12-20T00:55:15;26.55;;;20.23;;
83326;SDS011;73250;55.594;13.020;2023-12-20T00:57:41;26.23;;;20.55;;
83326;SDS011;73250;55.594;13.020;2023-12-20T01:00:08;25.63;;;19.60;;
83326;SDS011;73250;55.594;13.020;2023-12-20T01:02:36;27.27;;;21.33;;
83326;SDS011;73250;55.594;13.020;2023-12-20T01:05:02;27.08;;;20.25;;
83326;SDS011;73250;55.594;13.020;2023-12-20T01:07:31;24.75;;;20.27;;
83326;SDS011;73250;55.594;13.020;2023-12-20T01:09:57;25.92;;;19.75;;
83326;SDS011;73250;55.594;13.020;2023-12-20T01:12:24;27.83;;;21.52;;
83326;SDS011;73250;55.594;13.020;2023-12-20T01:14:51;24.83;;;20.00;;
83326;SDS011;73250;55.594;13.020;2023-12-20T01:17:17;27.48;;;20.85;;
83326;SDS011;73250;55.594;13.020;2023-12-20T01:19:44;24.90;;;20.42;;
83326;SDS011;73250;55.594;13.020;2023-12-20T01:22:10;26.05;;;20.20;;
83326;SDS011;73250;55.594;13.020;2023-12-20T01:24:38;27.58;;;20.00;;
83326;SDS011;73250;55.594;13.020;2023-12-20T01:27:05;26.95;;;20.67;;
83326;SDS011;73250;55.594;13.020;2023-12-20T01:29:32;26.73;;;19.77;;
83326;SDS011;73250;55.594;13.020;2023-12-20T01:31:58;26.23;;;19.92;;
83326;SDS011;73250;55.594;13.020;2023-12-20T01:34:25;27.05;;;20.48;;
83326;SDS011;73250;55.594;13.020;2023-12-20T01:36:51;25.70;;;19.95;;
83326;SDS011;73250;55.594;13.020;2023-12-20T01:39:18;27.83;;;20.73;;
83326;SDS011;73250;55.594;13.020;2023-12-20T01:41:46;25.20;;;19.33;;
83326;SDS011;73250;55.594;13.020;2023-12-20T01:44:13;24.70;;;18.85;;
83326;SDS011;73250;55.594;13.020;2023-12-20T01:46:39;25.27;;;20.30;;
83326;SDS011;73250;55.594;13.020;2023-12-20T01:49:06;29.27;;;20.73;;
83326;SDS011;73250;55.594;13.020;2023-12-20T01:51:34;26.15;;;20.63;;
83326;SDS011;73250;55.594;13.020;2023-12-20T01:54:01;26.30;;;21.00;;
83326;SDS011;73250;55.594;13.020;2023-12-20T01:56:28;29.17;;;22.45;;
83326;SDS011;73250;55.594;13.020;2023-12-20T01:58:57;27.05;;;20.17;;
83326;SDS011;73250;55.594;13.020;2023-12-20T02:01:24;28.25;;;21.40;;
83326;SDS011;73250;55.594;13.020;2023-12-20T02:03:53;26.55;;;20.33;;
83326;SDS011;73250;55.594;13.020;2023-12-20T02:06:21;28.73;;;21.45;;
83326;SDS011;73250;55.594;13.020;2023-12-20T02:08:49;26.75;;;20.52;;
83326;SDS011;73250;55.594;13.020;2023-12-20T02:11:16;27.00;;;21.35;;
83326;SDS011;73250;55.594;13.020;2023-12-20T02:13:43;27.10;;;20.58;;
83326;SDS011;73250;55.594;13.020;2023-12-20T02:16:11;27.00;;;20.77;;
83326;SDS011;73250;55.594;13.020;2023-12-20T02:18:37;25.10;;;19.73;;
83326;SDS011;73250;55.594;13.020;2023-12-20T02:21:05;28.30;;;21.48;;
83326;SDS011;73250;55.594;13.020;2023-12-20T02:23:33;28.45;;;21.23;;
83326;SDS011;73250;55.594;13.020;2023-12-20T02:25:59;25.30;;;20.33;;
83326;SDS011;73250;55.594;13.020;2023-12-20T02:28:26;28.08;;;21.30;;
83326;SDS011;73250;55.594;13.020;2023-12-20T02:30:53;26.88;;;20.65;;
83326;SDS011;73250;55.594;13.020;2023-12-20T02:33:20;29.55;;;22.27;;
83326;SDS011;73250;55.594;13.020;2023-12-20T02:35:46;24.77;;;20.55;;
83326;SDS011;73250;55.594;13.020;2023-12-20T02:38:13;25.88;;;19.90;;
83326;SDS011;73250;55.594;13.020;2023-12-20T02:40:41;26.98;;;21.90;;
83326;SDS011;73250;55.594;13.020;2023-12-20T02:43:08;27.58;;;21.55;;
83326;SDS011;73250;55.594;13.020;2023-12-20T02:45:34;28.98;;;21.20;;
83326;SDS011;73250;55.594;13.020;2023-12-20T02:48:01;27.88;;;21.00;;
83326;SDS011;73250;55.594;13.020;2023-12-20T02:50:28;30.33;;;22.60;;
83326;SDS011;73250;55.594;13.020;2023-12-20T02:52:54;28.42;;;22.20;;
83326;SDS011;73250;55.594;13.020;2023-12-20T02:55:21;31.30;;;22.88;;
83326;SDS011;73250;55.594;13.020;2023-12-20T02:57:49;30.23;;;22.27;;
83326;SDS011;73250;55.594;13.020;2023-12-20T03:00:16;28.75;;;21.92;;
83326;SDS011;73250;55.594;13.020;2023-12-20T03:02:43;29.77;;;22.13;;
83326;SDS011;73250;55.594;13.020;2023-12-20T03:05:09;27.25;;;21.30;;
83326;SDS011;73250;55.594;13.020;2023-12-20T03:07:36;29.88;;;20.85;;
83326;SDS011;73250;55.594;13.020;2023-12-20T03:10:03;25.92;;;20.10;;
83326;SDS011;73250;55.594;13.020;2023-12-20T03:12:32;28.00;;;20.35;;
83326;SDS011;73250;55.594;13.020;2023-12-20T03:15:00;26.70;;;21.60;;
83326;SDS011;73250;55.594;13.020;2023-12-20T03:17:27;26.38;;;21.05;;
83326;SDS011;73250;55.594;13.020;2023-12-20T03:19:53;25.50;;;20.60;;
83326;SDS011;73250;55.594;13.020;2023-12-20T03:22:20;26.40;;;20.92;;
83326;SDS011;73250;55.594;13.020;2023-12-20T03:24:47;29.33;;;21.05;;
83326;SDS011;73250;55.594;13.020;2023-12-20T03:27:14;31.23;;;22.38;;
83326;SDS011;73250;55.594;13.020;2023-12-20T03:29:40;28.80;;;20.73;;
83326;SDS011;73250;55.594;13.020;2023-12-20T03:32:08;27.60;;;22.02;;
83326;SDS011;73250;55.594;13.020;2023-12-20T03:34:35;27.30;;;21.58;;
83326;SDS011;73250;55.594;13.020;2023-12-20T03:37:02;25.92;;;19.77;;
83326;SDS011;73250;55.594;13.020;2023-12-20T03:39:28;26.70;;;20.25;;
83326;SDS011;73250;55.594;13.020;2023-12-20T03:41:55;25.70;;;20.95;;
83326;SDS011;73250;55.594;13.020;2023-12-20T03:44:22;26.08;;;20.75;;
83326;SDS011;73250;55.594;13.020;2023-12-20T03:46:48;28.67;;;21.58;;
83326;SDS011;73250;55.594;13.020;2023-12-20T03:49:16;27.00;;;20.65;;
83326;SDS011;73250;55.594;13.020;2023-12-20T03:51:43;25.02;;;20.00;;
83326;SDS011;73250;55.594;13.020;2023-12-20T03:54:09;26.77;;;20.30;;
83326;SDS011;73250;55.594;13.020;2023-12-20T03:56:36;27.67;;;21.23;;
83326;SDS011;73250;55.594;13.020;2023-12-20T03:59:03;25.25;;;20.77;;
83326;SDS011;73250;55.594;13.020;2023-12-20T04:01:29;29.02;;;21.90;;
83326;SDS011;73250;55.594;13.020;2023-12-20T04:03:56;25.73;;;20.77;;
83326;SDS011;73250;55.594;13.020;2023-12-20T04:06:24;27.58;;;21.13;;
83326;SDS011;73250;55.594;13.020;2023-12-20T04:08:50;30.42;;;21.20;;
83326;SDS011;73250;55.594;13.020;2023-12-20T04:11:17;26.98;;;21.00;;
83326;SDS011;73250;55.594;13.020;2023-12-20T04:13:44;27.95;;;20.63;;
83326;SDS011;73250;55.594;13.020;2023-12-20T04:16:10;24.83;;;20.05;;
83326;SDS011;73250;55.594;13.020;2023-12-20T04:18:37;25.80;;;20.50;;
83326;SDS011;73250;55.594;13.020;2023-12-20T04:21:04;25.60;;;20.70;;
83326;SDS011;73250;55.594;13.020;2023-12-20T04:23:32;28.05;;;20.20;;
83326;SDS011;73250;55.594;13.020;2023-12-20T04:25:58;27.95;;;20.80;;
83326;SDS011;73250;55.594;13.020;2023-12-20T04:28:25;24.70;;;21.00;;
83326;SDS011;73250;55.594;13.020;2023-12-20T04:30:51;29.63;;;21.88;;
83326;SDS011;73250;55.594;13.020;2023-12-20T04:33:18;31.10;;;21.77;;
83326;SDS011;73250;55.594;13.020;2023-12-20T04:35:45;26.67;;;21.23;;
83326;SDS011;73250;55.594;13.020;2023-12-20T04:38:11;25.13;;;19.80;;
83326;SDS011;73250;55.594;13.020;2023-12-20T04:40:39;29.50;;;21.30;;
83326;SDS011;73250;55.594;13.020;2023-12-20T04:43:06;26.70;;;20.83;;
83326;SDS011;73250;55.594;13.020;2023-12-20T04:45:33;26.83;;;20.27;;
83326;SDS011;73250;55.594;13.020;2023-12-20T04:48:00;26.23;;;20.73;;
83326;SDS011;73250;55.594;13.020;2023-12-20T04:50:27;26.73;;;20.95;;
83326;SDS011;73250;55.594;13.020;2023-12-20T04:52:54;30.10;;;21.85;;
83326;SDS011;73250;55.594;13.020;2023-12-20T04:55:21;27.95;;;21.23;;
83326;SDS011;73250;55.594;13.020;2023-12-20T04:57:49;27.33;;;20.25;;
83326;SDS011;73250;55.594;13.020;2023-12-20T05:00:15;26.67;;;20.33;;
83326;SDS011;73250;55.594;13.020;2023-12-20T05:02:42;29.42;;;21.40;;
83326;SDS011;73250;55.594;13.020;2023-12-20T05:05:09;24.33;;;19.23;;
83326;SDS011;73250;55.594;13.020;2023-12-20T05:07:36;25.10;;;19.70;;
83326;SDS011;73250;55.594;13.020;2023-12-20T05:10:02;27.17;;;20.98;;
83326;SDS011;73250;55.594;13.020;2023-12-20T05:12:30;27.33;;;20.70;;
83326;SDS011;73250;55.594;13.020;2023-12-20T05:14:58;29.02;;;21.33;;
83326;SDS011;73250;55.594;13.020;2023-12-20T05:17:25;25.67;;;20.35;;
83326;SDS011;73250;55.594;13.020;2023-12-20T05:19:51;30.15;;;21.95;;
83326;SDS011;73250;55.594;13.020;2023-12-20T05:22:18;27.63;;;21.27;;
83326;SDS011;73250;55.594;13.020;2023-12-20T05:24:45;26.42;;;20.35;;
83326;SDS011;73250;55.594;13.020;2023-12-20T05:27:12;28.83;;;21.85;;
83326;SDS011;73250;55.594;13.020;2023-12-20T05:29:39;28.55;;;21.73;;
83326;SDS011;73250;55.594;13.020;2023-12-20T05:32:07;28.70;;;21.80;;
83326;SDS011;73250;55.594;13.020;2023-12-20T05:34:34;25.75;;;21.05;;
83326;SDS011;73250;55.594;13.020;2023-12-20T05:37:00;29.95;;;21.48;;
83326;SDS011;73250;55.594;13.020;2023-12-20T05:39:27;27.15;;;20.83;;
83326;SDS011;73250;55.594;13.020;2023-12-20T05:41:55;27.42;;;21.50;;
83326;SDS011;73250;55.594;13.020;2023-12-20T05:44:22;27.55;;;20.33;;
83326;SDS011;73250;55.594;13.020;2023-12-20T05:46:49;27.58;;;21.17;;
83326;SDS011;73250;55.594;13.020;2023-12-20T05:49:17;27.70;;;21.80;;
83326;SDS011;73250;55.594;13.020;2023-12-20T05:51:44;29.25;;;21.92;;
83326;SDS011;73250;55.594;13.020;2023-12-20T05:54:10;28.85;;;21.58;;
83326;SDS011;73250;55.594;13.020;2023-12-20T05:56:37;28.27;;;21.92;;
83326;SDS011;73250;55.594;13.020;2023-12-20T05:59:04;29.63;;;22.25;;
83326;SDS011;73250;55.594;13.020;2023-12-20T06:01:30;28.83;;;21.30;;
83326;SDS011;73250;55.594;13.020;2023-12-20T06:03:57;30.67;;;21.55;;
83326;SDS011;73250;55.594;13.020;2023-12-20T06:06:25;26.92;;;21.52;;
83326;SDS011;73250;55.594;13.020;2023-12-20T06:08:51;27.45;;;20.48;;
83326;SDS011;73250;55.594;13.020;2023-12-20T06:11:18;28.52;;;21.02;;
83326;SDS011;73250;55.594;13.020;2023-12-20T06:13:45;28.48;;;20.85;;
83326;SDS011;73250;55.594;13.020;2023-12-20T06:16:11;26.52;;;20.20;;
83326;SDS011;73250;55.594;13.020;2023-12-20T06:18:38;26.73;;;21.23;;
83326;SDS011;73250;55.594;13.020;2023-12-20T06:21:05;29.25;;;21.95;;
83326;SDS011;73250;55.594;13.020;2023-12-20T06:23:34;29.58;;;21.55;;
83326;SDS011;73250;55.594;13.020;2023-12-20T06:26:00;28.08;;;20.95;;
83326;SDS011;73250;55.594;13.020;2023-12-20T06:28:27;27.92;;;21.25;;
83326;SDS011;73250;55.594;13.020;2023-12-20T06:30:54;30.13;;;22.50;;
83326;SDS011;73250;55.594;13.020;2023-12-20T06:33:21;28.10;;;20.70;;
83326;SDS011;73250;55.594;13.020;2023-12-20T06:35:49;27.63;;;21.42;;
83326;SDS011;73250;55.594;13.020;2023-12-20T06:38:17;28.95;;;22.73;;
83326;SDS011;73250;55.594;13.020;2023-12-20T06:40:46;28.42;;;21.13;;
83326;SDS011;73250;55.594;13.020;2023-12-20T06:43:13;28.15;;;21.25;;
83326;SDS011;73250;55.594;13.020;2023-12-20T06:45:40;29.23;;;20.98;;
83326;SDS011;73250;55.594;13.020;2023-12-20T06:48:07;30.75;;;22.83;;
83326;SDS011;73250;55.594;13.020;2023-12-20T06:50:34;30.75;;;23.35;;
83326;SDS011;73250;55.594;13.020;2023-12-20T06:53:04;29.25;;;22.13;;
83326;SDS011;73250;55.594;13.020;2023-12-20T06:55:32;27.17;;;22.15;;
83326;SDS011;73250;55.594;13.020;2023-12-20T06:58:00;31.02;;;24.20;;
83326;SDS011;73250;55.594;13.020;2023-12-20T07:00:26;29.00;;;22.38;;
83326;SDS011;73250;55.594;13.020;2023-12-20T07:02:53;29.30;;;22.85;;
83326;SDS011;73250;55.594;13.020;2023-12-20T07:05:20;29.98;;;22.38;;
83326;SDS011;73250;55.594;13.020;2023-12-20T07:07:46;31.33;;;23.80;;
83326;SDS011;73250;55.594;13.020;2023-12-20T07:10:13;30.90;;;23.80;;
83326;SDS011;73250;55.594;13.020;2023-12-20T07:12:40;30.92;;;23.27;;
83326;SDS011;73250;55.594;13.020;2023-12-20T07:15:08;33.58;;;23.75;;
83326;SDS011;73250;55.594;13.020;2023-12-20T07:17:35;30.75;;;23.23;;
83326;SDS011;73250;55.594;13.020;2023-12-20T07:20:02;28.73;;;22.52;;
83326;SDS011;73250;55.594;13.020;2023-12-20T07:22:35;28.90;;;22.60;;
83326;SDS011;73250;55.594;13.020;2023-12-20T07:25:02;29.80;;;23.20;;
83326;SDS011;73250;55.594;13.020;2023-12-20T07:27:29;32.03;;;24.55;;
83326;SDS011;73250;55.594;13.020;2023-12-20T07:29:56;29.73;;;22.95;;
83326;SDS011;73250;55.594;13.020;2023-12-20T07:32:24;31.45;;;23.05;;
83326;SDS011;73250;55.594;13.020;2023-12-20T07:34:51;33.05;;;25.02;;
83326;SDS011;73250;55.594;13.020;2023-12-20T07:37:18;35.97;;;25.88;;
83326;SDS011;73250;55.594;13.020;2023-12-20T07:39:46;34.90;;;25.05;;
83326;SDS011;73250;55.594;13.020;2023-12-20T07:42:12;36.30;;;25.05;;
83326;SDS011;73250;55.594;13.020;2023-12-20T07:44:39;27.42;;;20.65;;
83326;SDS011;73250;55.594;13.020;2023-12-20T07:47:06;29.08;;;22.45;;
83326;SDS011;73250;55.594;13.020;2023-12-20T07:49:34;33.50;;;25.50;;
83326;SDS011;73250;55.594;13.020;2023-12-20T07:52:01;33.92;;;25.38;;
83326;SDS011;73250;55.594;13.020;2023-12-20T07:54:27;31.20;;;24.48;;
83326;SDS011;73250;55.594;13.020;2023-12-20T07:56:54;31.70;;;23.58;;
83326;SDS011;73250;55.594;13.020;2023-12-20T07:59:21;38.63;;;28.58;;
83326;SDS011;73250;55.594;13.020;2023-12-20T08:01:48;36.35;;;28.02;;
83326;SDS011;73250;55.594;13.020;2023-12-20T08:04:14;33.47;;;24.30;;
83326;SDS011;73250;55.594;13.020;2023-12-20T08:06:42;33.83;;;25.05;;
83326;SDS011;73250;55.594;13.020;2023-12-20T08:09:09;33.17;;;23.33;;
83326;SDS011;73250;55.594;13.020;2023-12-20T08:11:36;29.55;;;21.85;;
83326;SDS011;73250;55.594;13.020;2023-12-20T08:14:02;32.75;;;23.30;;
83326;SDS011;73250;55.594;13.020;2023-12-20T08:16:29;28.02;;;21.13;;
83326;SDS011;73250;55.594;13.020;2023-12-20T08:18:55;31.73;;;22.08;;
83326;SDS011;73250;55.594;13.020;2023-12-20T08:21:22;28.05;;;20.60;;
83326;SDS011;73250;55.594;13.020;2023-12-20T08:23:50;32.65;;;24.60;;
83326;SDS011;73250;55.594;13.020;2023-12-20T08:26:18;26.35;;;19.45;;
83326;SDS011;73250;55.594;13.020;2023-12-20T08:28:46;27.67;;;19.90;;
83326;SDS011;73250;55.594;13.020;2023-12-20T08:31:13;25.83;;;20.38;;
83326;SDS011;73250;55.594;13.020;2023-12-20T08:33:41;28.52;;;19.88;;
83326;SDS011;73250;55.594;13.020;2023-12-20T08:36:09;26.77;;;19.95;;
83326;SDS011;73250;55.594;13.020;2023-12-20T08:38:36;27.20;;;19.70;;
83326;SDS011;73250;55.594;13.020;2023-12-20T08:41:04;21.65;;;16.65;;
83326;SDS011;73250;55.594;13.020;2023-12-20T08:43:31;21.77;;;16.95;;
83326;SDS011;73250;55.594;13.020;2023-12-20T08:45:57;24.90;;;18.63;;
83326;SDS011;73250;55.594;13.020;2023-12-20T08:48:24;22.13;;;16.35;;
83326;SDS011;73250;55.594;13.020;2023-12-20T08:50:51;24.63;;;18.42;;
83326;SDS011;73250;55.594;13.020;2023-12-20T08:53:17;18.77;;;15.70;;
83326;SDS011;73250;55.594;13.020;2023-12-20T08:55:44;29.38;;;20.60;;
83326;SDS011;73250;55.594;13.020;2023-12-20T08:58:12;22.48;;;17.50;;
83326;SDS011;73250;55.594;13.020;2023-12-20T09:00:39;23.55;;;17.35;;
83326;SDS011;73250;55.594;13.020;2023-12-20T09:03:06;24.10;;;16.30;;
83326;SDS011;73250;55.594;13.020;2023-12-20T09:05:33;22.80;;;17.25;;
83326;SDS011;73250;55.594;13.020;2023-12-20T09:07:59;27.13;;;18.33;;
83326;SDS011;73250;55.594;13.020;2023-12-20T09:10:26;21.55;;;16.42;;
83326;SDS011;73250;55.594;13.020;2023-12-20T09:12:53;23.83;;;17.40;;
83326;SDS011;73250;55.594;13.020;2023-12-20T09:15:23;22.05;;;15.05;;
83326;SDS011;73250;55.594;13.020;2023-12-20T09:17:50;20.05;;;15.50;;
83326;SDS011;73250;55.594;13.020;2023-12-20T09:20:16;23.90;;;18.08;;
83326;SDS011;73250;55.594;13.020;2023-12-20T09:22:43;27.67;;;20.85;;
83326;SDS011;73250;55.594;13.020;2023-12-20T09:25:10;25.05;;;18.38;;
83326;SDS011;73250;55.594;13.020;2023-12-20T09:27:37;24.00;;;17.85;;
83326;SDS011;73250;55.594;13.020;2023-12-20T09:30:04;21.67;;;17.08;;
83326;SDS011;73250;55.594;13.020;2023-12-20T09:32:33;26.63;;;20.92;;
83326;SDS011;73250;55.594;13.020;2023-12-20T09:35:02;22.27;;;17.80;;
83326;SDS011;73250;55.594;13.020;2023-12-20T09:37:31;24.98;;;18.15;;
83326;SDS011;73250;55.594;13.020;2023-12-20T09:39:57;27.45;;;19.70;;
83326;SDS011;73250;55.594;13.020;2023-12-20T09:42:24;24.67;;;18.73;;
83326;SDS011;73250;55.594;13.020;2023-12-20T09:44:58;28.38;;;21.63;;
83326;SDS011;73250;55.594;13.020;2023-12-20T09:47:28;29.20;;;20.33;;
83326;SDS011;73250;55.594;13.020;2023-12-20T09:49:56;25.55;;;19.75;;
83326;SDS011;73250;55.594;13.020;2023-12-20T09:52:23;24.58;;;18.00;;
83326;SDS011;73250;55.594;13.020;2023-12-20T09:54:50;30.20;;;21.45;;
83326;SDS011;73250;55.594;13.020;2023-12-20T09:57:20;32.70;;;21.60;;
83326;SDS011;73250;55.594;13.020;2023-12-20T09:59:46;28.95;;;19.40;;
83326;SDS011;73250;55.594;13.020;2023-12-20T10:02:13;25.33;;;17.83;;
83326;SDS011;73250;55.594;13.020;2023-12-20T10:04:40;29.25;;;20.10;;
83326;SDS011;73250;55.594;13.020;2023-12-20T10:07:15;32.33;;;21.42;;
83326;SDS011;73250;55.594;13.020;2023-12-20T10:09:42;32.65;;;23.77;;
83326;SDS011;73250;55.594;13.020;2023-12-20T10:12:08;34.72;;;26.13;;
83326;SDS011;73250;55.594;13.020;2023-12-20T10:14:35;30.77;;;20.35;;
83326;SDS011;73250;55.594;13.020;2023-12-20T10:17:02;33.03;;;23.60;;
83326;SDS011;73250;55.594;13.020;2023-12-20T10:19:29;41.22;;;28.05;;
83326;SDS011;73250;55.594;13.020;2023-12-20T10:21:57;38.50;;;25.95;;
83326;SDS011;73250;55.594;13.020;2023-12-20T10:24:27;31.02;;;22.13;;
83326;SDS011;73250;55.594;13.020;2023-12-20T10:27:01;38.17;;;24.02;;
83326;SDS011;73250;55.594;13.020;2023-12-20T10:29:31;32.38;;;22.33;;
83326;SDS011;73250;55.594;13.020;2023-12-20T10:31:58;37.63;;;25.65;;
83326;SDS011;73250;55.594;13.020;2023-12-20T10:34:25;29.88;;;20.02;;
83326;SDS011;73250;55.594;13.020;2023-12-20T10:36:52;32.42;;;19.85;;
83326;SDS011;73250;55.594;13.020;2023-12-20T10:39:19;32.85;;;20.15;;
83326;SDS011;73250;55.594;13.020;2023-12-20T10:41:48;30.48;;;21.73;;
83326;SDS011;73250;55.594;13.020;2023-12-20T10:44:15;35.00;;;19.48;;
83326;SDS011;73250;55.594;13.020;2023-12-20T10:46:42;27.23;;;17.15;;
83326;SDS011;73250;55.594;13.020;2023-12-20T10:49:16;23.42;;;16.25;;
83326;SDS011;73250;55.594;13.020;2023-12-20T10:51:44;24.67;;;17.10;;
83326;SDS011;73250;55.594;13.020;2023-12-20T10:54:13;24.00;;;16.85;;
83326;SDS011;73250;55.594;13.020;2023-12-20T10:56:40;27.42;;;18.88;;
83326;SDS011;73250;55.594;13.020;2023-12-20T10:59:09;24.50;;;16.13;;
83326;SDS011;73250;55.594;13.020;2023-12-20T11:01:38;41.22;;;23.73;;
83326;SDS011;73250;55.594;13.020;2023-12-20T11:04:06;39.05;;;23.02;;
83326;SDS011;73250;55.594;13.020;2023-12-20T11:06:39;54.67;;;29.73;;
83326;SDS011;73250;55.594;13.020;2023-12-20T11:09:12;42.72;;;22.52;;
83326;SDS011;73250;55.594;13.020;2023-12-20T11:11:47;38.53;;;22.67;;
83326;SDS011;73250;55.594;13.020;2023-12-20T11:14:27;41.55;;;24.50;;
83326;SDS011;73250;55.594;13.020;2023-12-20T11:17:07;38.03;;;21.67;;
83326;SDS011;73250;55.594;13.020;2023-12-20T11:19:36;34.53;;;20.00;;
83326;SDS011;73250;55.594;13.020;2023-12-20T11:22:04;35.15;;;21.33;;
83326;SDS011;73250;55.594;13.020;2023-12-20T11:24:31;32.35;;;18.10;;
83326;SDS011;73250;55.594;13.020;2023-12-20T11:26:59;30.05;;;19.08;;
83326;SDS011;73250;55.594;13.020;2023-12-20T11:29:32;34.55;;;20.08;;
83326;SDS011;73250;55.594;13.020;2023-12-20T11:32:00;27.98;;;17.40;;
83326;SDS011;73250;55.594;13.020;2023-12-20T11:34:28;29.70;;;18.45;;
83326;SDS011;73250;55.594;13.020;2023-12-20T11:36:57;29.90;;;18.75;;
83326;SDS011;73250;55.594;13.020;2023-12-20T11:39:25;33.47;;;20.25;;
83326;SDS011;73250;55.594;13.020;2023-12-20T11:41:53;30.45;;;20.38;;
83326;SDS011;73250;55.594;13.020;2023-12-20T11:44:21;30.20;;;18.75;;
83326;SDS011;73250;55.594;13.020;2023-12-20T11:46:49;31.33;;;19.23;;
83326;SDS011;73250;55.594;13.020;2023-12-20T11:49:16;26.25;;;17.30;;
83326;SDS011;73250;55.594;13.020;2023-12-20T11:51:42;29.65;;;17.00;;
83326;SDS011;73250;55.594;13.020;2023-12-20T11:54:10;34.13;;;22.58;;
83326;SDS011;73250;55.594;13.020;2023-12-20T11:56:37;23.23;;;15.35;;
83326;SDS011;73250;55.594;13.020;2023-12-20T11:59:03;22.15;;;15.05;;
83326;SDS011;73250;55.594;13.020;2023-12-20T12:01:31;19.70;;;13.68;;
83326;SDS011;73250;55.594;13.020;2023-12-20T12:04:05;22.95;;;14.90;;
83326;SDS011;73250;55.594;13.020;2023-12-20T12:06:32;23.20;;;16.23;;
83326;SDS011;73250;55.594;13.020;2023-12-20T12:08:59;24.40;;;16.60;;
83326;SDS011;73250;55.594;13.020;2023-12-20T12:11:26;32.15;;;20.17;;
83326;SDS011;73250;55.594;13.020;2023-12-20T12:13:53;29.23;;;20.55;;
83326;SDS011;73250;55.594;13.020;2023-12-20T12:16:19;24.58;;;15.43;;
83326;SDS011;73250;55.594;13.020;2023-12-20T12:18:46;25.83;;;16.50;;
83326;SDS011;73250;55.594;13.020;2023-12-20T12:21:22;29.20;;;18.85;;
83326;SDS011;73250;55.594;13.020;2023-12-20T12:23:48;25.65;;;16.95;;
83326;SDS011;73250;55.594;13.020;2023-12-20T12:26:15;27.50;;;18.63;;
83326;SDS011;73250;55.594;13.020;2023-12-20T12:28:42;24.95;;;17.58;;
83326;SDS011;73250;55.594;13.020;2023-12-20T12:31:12;29.30;;;18.95;;
83326;SDS011;73250;55.594;13.020;2023-12-20T12:33:40;26.35;;;17.75;;
83326;SDS011;73250;55.594;13.020;2023-12-20T12:36:07;29.05;;;15.98;;
83326;SDS011;73250;55.594;13.020;2023-12-20T12:38:35;21.20;;;13.80;;
83326;SDS011;73250;55.594;13.020;2023-12-20T12:41:02;24.05;;;14.77;;
83326;SDS011;73250;55.594;13.020;2023-12-20T12:43:28;20.70;;;14.52;;
83326;SDS011;73250;55.594;13.020;2023-12-20T12:45:55;21.98;;;14.27;;
83326;SDS011;73250;55.594;13.020;2023-12-20T12:48:22;23.52;;;15.65;;
83326;SDS011;73250;55.594;13.020;2023-12-20T12:50:49;23.13;;;13.10;;
83326;SDS011;73250;55.594;13.020;2023-12-20T12:53:18;21.05;;;12.57;;
83326;SDS011;73250;55.594;13.020;2023-12-20T12:55:46;22.77;;;14.63;;
83326;SDS011;73250;55.594;13.020;2023-12-20T12:58:13;21.95;;;14.80;;
83326;SDS011;73250;55.594;13.020;2023-12-20T13:00:39;22.55;;;12.73;;
83326;SDS011;73250;55.594;13.020;2023-12-20T13:03:07;25.00;;;15.18;;
83326;SDS011;73250;55.594;13.020;2023-12-20T13:05:34;23.85;;;17.15;;
83326;SDS011;73250;55.594;13.020;2023-12-20T13:08:00;28.23;;;16.80;;
83326;SDS011;73250;55.594;13.020;2023-12-20T13:10:27;22.35;;;15.40;;
83326;SDS011;73250;55.594;13.020;2023-12-20T13:12:55;23.10;;;15.95;;
83326;SDS011;73250;55.594;13.020;2023-12-20T13:15:21;25.42;;;16.45;;
83326;SDS011;73250;55.594;13.020;2023-12-20T13:17:48;24.33;;;16.83;;
83326;SDS011;73250;55.594;13.020;2023-12-20T13:20:15;37.20;;;22.38;;
83326;SDS011;73250;55.594;13.020;2023-12-20T13:22:42;32.65;;;19.60;;
83326;SDS011;73250;55.594;13.020;2023-12-20T13:25:09;229.07;;;86.20;;
83326;SDS011;73250;55.594;13.020;2023-12-20T13:27:35;91.25;;;40.90;;
83326;SDS011;73250;55.594;13.020;2023-12-20T13:30:04;95.93;;;42.20;;
83326;SDS011;73250;55.594;13.020;2023-12-20T13:32:32;163.95;;;61.97;;
83326;SDS011;73250;55.594;13.020;2023-12-20T13:34:59;91.53;;;41.17;;
83326;SDS011;73250;55.594;13.020;2023-12-20T13:37:25;94.93;;;40.75;;
83326;SDS011;73250;55.594;13.020;2023-12-20T13:39:52;113.10;;;50.85;;
83326;SDS011;73250;55.594;13.020;2023-12-20T13:42:18;327.40;;;122.57;;
83326;SDS011;73250;55.594;13.020;2023-12-20T13:44:45;257.73;;;97.53;;
83326;SDS011;73250;55.594;13.020;2023-12-20T13:47:14;207.15;;;80.85;;
83326;SDS011;73250;55.594;13.020;2023-12-20T13:49:40;224.07;;;88.90;;
83326;SDS011;73250;55.594;13.020;2023-12-20T13:52:07;181.45;;;76.28;;
83326;SDS011;73250;55.594;13.020;2023-12-20T13:54:34;194.30;;;81.82;;
83326;SDS011;73250;55.594;13.020;2023-12-20T13:57:00;180.38;;;74.20;;
83326;SDS011;73250;55.594;13.020;2023-12-20T13:59:28;215.10;;;85.68;;
83326;SDS011;73250;55.594;13.020;2023-12-20T14:01:54;165.95;;;69.00;;
83326;SDS011;73250;55.594;13.020;2023-12-20T14:04:23;187.90;;;78.00;;
83326;SDS011;73250;55.594;13.020;2023-12-20T14:06:50;167.07;;;70.63;;
83326;SDS011;73250;55.594;13.020;2023-12-20T14:09:16;177.40;;;77.65;;